createdAt,value
2019-05-26T00:00:52.674Z,12.99
2019-05-26T00:01:52.799Z,12.99
2019-05-26T00:02:53.229Z,12.87
2019-05-26T00:03:53.180Z,12.93
2019-05-26T00:04:53.573Z,12.94
2019-05-26T00:05:54.265Z,12.93
2019-05-26T00:06:55.027Z,13.01
2019-05-26T00:07:55.726Z,12.95
2019-05-26T00:08:56.139Z,13.01
2019-05-26T00:09:56.254Z,13.05
2019-05-26T00:10:56.798Z,13.02
2019-05-26T00:11:58.063Z,13.01
2019-05-26T00:12:58.738Z,13.01
2019-05-26T00:13:58.977Z,13.02
2019-05-26T00:14:59.108Z,13.01
2019-05-26T00:15:59.830Z,13.08
2019-05-26T00:17:00.831Z,12.98
2019-05-26T00:18:00.799Z,13.08
2019-05-26T00:19:01.780Z,13.01
2019-05-26T00:20:02.203Z,13.01
2019-05-26T00:21:02.751Z,12.98
2019-05-26T00:22:03.743Z,13.01
2019-05-26T00:23:04.461Z,12.94
2019-05-26T00:24:04.712Z,13.02
2019-05-26T00:25:04.828Z,12.95
2019-05-26T00:26:04.959Z,12.99
2019-05-26T00:27:05.076Z,12.94
2019-05-26T00:28:05.483Z,12.99
2019-05-26T00:29:06.172Z,12.94
2019-05-26T00:30:06.293Z,12.91
2019-05-26T00:31:06.417Z,12.87
2019-05-26T00:32:07.433Z,12.86
2019-05-26T00:33:08.433Z,12.87
2019-05-26T00:34:08.945Z,12.83
2019-05-26T00:35:09.129Z,12.81
2019-05-26T00:36:09.498Z,12.8
2019-05-26T00:37:09.912Z,12.73
2019-05-26T00:38:10.627Z,12.8
2019-05-26T00:39:11.363Z,12.78
2019-05-26T00:40:12.106Z,12.8
2019-05-26T00:41:12.243Z,12.83
2019-05-26T00:42:12.662Z,12.8
2019-05-26T00:43:13.649Z,12.84
2019-05-26T00:44:14.604Z,12.76
2019-05-26T00:45:15.039Z,12.81
2019-05-26T00:46:15.465Z,12.76
2019-05-26T00:47:15.585Z,12.75
2019-05-26T00:48:15.705Z,12.83
2019-05-26T00:49:16.119Z,12.78
2019-05-26T00:50:16.535Z,12.83
2019-05-26T00:51:16.953Z,12.68
2019-05-26T00:52:17.072Z,12.75
2019-05-26T00:53:17.486Z,12.7
2019-05-26T00:54:18.457Z,12.69
2019-05-26T00:55:18.446Z,12.7
2019-05-26T00:56:18.858Z,12.8
2019-05-26T00:57:19.280Z,12.78
2019-05-26T00:58:19.694Z,12.78
2019-05-26T00:59:20.109Z,12.7
2019-05-26T01:00:20.822Z,12.72
2019-05-26T01:01:21.240Z,12.83
2019-05-26T01:02:21.937Z,12.66
2019-05-26T01:03:22.056Z,12.66
2019-05-26T01:04:22.298Z,12.62
2019-05-26T01:05:23.011Z,12.61
2019-05-26T01:06:23.721Z,12.66
2019-05-26T01:07:24.126Z,12.66
2019-05-26T01:08:24.247Z,12.66
2019-05-26T01:09:24.971Z,12.65
2019-05-26T01:10:25.391Z,12.63
2019-05-26T01:11:25.788Z,12.63
2019-05-26T01:12:26.182Z,12.69
2019-05-26T01:13:26.471Z,12.63
2019-05-26T01:14:26.458Z,12.66
2019-05-26T01:15:26.889Z,12.63
2019-05-26T01:16:27.013Z,12.65
2019-05-26T01:17:27.134Z,12.68
2019-05-26T01:18:27.554Z,12.66
2019-05-26T01:19:27.686Z,12.69
2019-05-26T01:20:28.427Z,12.63
2019-05-26T01:21:29.120Z,12.68
2019-05-26T01:22:29.804Z,12.53
2019-05-26T01:23:30.221Z,12.57
2019-05-26T01:24:31.213Z,12.57
2019-05-26T01:25:31.332Z,12.51
2019-05-26T01:26:31.733Z,12.62
2019-05-26T01:27:32.419Z,12.63
2019-05-26T01:28:32.553Z,12.54
2019-05-26T01:29:32.956Z,12.62
2019-05-26T01:30:33.680Z,12.66
2019-05-26T01:31:34.497Z,12.55
2019-05-26T01:32:35.193Z,12.57
2019-05-26T01:33:35.604Z,12.57
2019-05-26T01:34:36.589Z,12.51
2019-05-26T01:35:37.290Z,12.62
2019-05-26T01:36:37.987Z,12.51
2019-05-26T01:37:38.110Z,12.7
2019-05-26T01:38:38.525Z,12.62
2019-05-26T01:39:38.938Z,12.65
2019-05-26T01:40:39.382Z,12.53
2019-05-26T01:41:39.511Z,12.69
2019-05-26T01:42:40.225Z,12.57
2019-05-26T01:43:40.352Z,12.58
2019-05-26T01:44:41.302Z,12.61
2019-05-26T01:45:41.716Z,12.57
2019-05-26T01:46:42.117Z,12.62
2019-05-26T01:47:42.516Z,12.55
2019-05-26T01:48:42.656Z,12.57
2019-05-26T01:49:43.380Z,12.62
2019-05-26T01:50:43.779Z,12.57
2019-05-26T01:51:43.907Z,12.58
2019-05-26T01:52:44.325Z,12.57
2019-05-26T01:53:45.022Z,12.57
2019-05-26T01:54:46.455Z,12.55
2019-05-26T01:55:45.575Z,12.55
2019-05-26T01:56:45.706Z,12.54
2019-05-26T01:57:45.852Z,12.57
2019-05-26T01:58:45.967Z,12.57
2019-05-26T01:59:46.371Z,12.57
2019-05-26T02:00:47.443Z,12.61
2019-05-26T02:01:47.564Z,12.51
2019-05-26T02:02:48.022Z,12.54
2019-05-26T02:03:48.448Z,12.58
2019-05-26T02:04:49.702Z,12.61
2019-05-26T02:05:50.144Z,12.61
2019-05-26T02:06:50.549Z,12.54
2019-05-26T02:07:50.664Z,12.61
2019-05-26T02:08:50.789Z,12.69
2019-05-26T02:09:51.212Z,12.66
2019-05-26T02:10:51.939Z,12.61
2019-05-26T02:11:52.064Z,12.63
2019-05-26T02:12:52.187Z,12.65
2019-05-26T02:13:52.619Z,12.55
2019-05-26T02:14:52.868Z,12.57
2019-05-26T02:15:53.008Z,12.54
2019-05-26T02:16:53.407Z,12.61
2019-05-26T02:17:54.119Z,12.54
2019-05-26T02:18:54.820Z,12.61
2019-05-26T02:19:54.990Z,12.54
2019-05-26T02:20:55.683Z,12.58
2019-05-26T02:21:56.621Z,12.61
2019-05-26T02:22:57.405Z,12.55
2019-05-26T02:23:57.522Z,12.58
2019-05-26T02:24:58.776Z,12.51
2019-05-26T02:25:59.476Z,12.47
2019-05-26T02:27:00.744Z,12.39
2019-05-26T02:28:01.141Z,12.44
2019-05-26T02:29:01.271Z,12.44
2019-05-26T02:30:02.287Z,12.4
2019-05-26T02:31:02.595Z,12.44
2019-05-26T02:32:03.308Z,12.4
2019-05-26T02:33:04.307Z,12.48
2019-05-26T02:34:04.357Z,12.44
2019-05-26T02:35:04.605Z,12.36
2019-05-26T02:36:05.628Z,12.47
2019-05-26T02:37:06.064Z,12.48
2019-05-26T02:38:06.472Z,12.37
2019-05-26T02:39:09.424Z,12.39
2019-05-26T02:40:08.132Z,12.39
2019-05-26T02:41:08.253Z,12.45
2019-05-26T02:42:08.389Z,12.45
2019-05-26T02:43:09.180Z,12.37
2019-05-26T02:44:10.213Z,12.4
2019-05-26T02:45:10.440Z,12.39
2019-05-26T02:46:11.448Z,12.37
2019-05-26T02:47:11.252Z,12.44
2019-05-26T02:48:12.006Z,12.39
2019-05-26T02:49:13.440Z,12.48
2019-05-26T02:50:13.715Z,12.47
2019-05-26T02:51:14.163Z,12.48
2019-05-26T02:52:14.577Z,12.48
2019-05-26T02:53:15.279Z,12.44
2019-05-26T02:54:15.983Z,12.45
2019-05-26T02:55:17.540Z,12.35
2019-05-26T02:56:17.273Z,12.45
2019-05-26T02:57:17.415Z,12.37
2019-05-26T02:58:18.422Z,12.37
2019-05-26T02:59:18.437Z,12.44
2019-05-26T03:00:18.864Z,12.4
2019-05-26T03:01:19.854Z,12.4
2019-05-26T03:02:20.580Z,12.47
2019-05-26T03:03:21.284Z,12.39
2019-05-26T03:04:22.009Z,12.45
2019-05-26T03:05:23.160Z,12.45
2019-05-26T03:06:23.864Z,12.4
2019-05-26T03:07:24.039Z,12.43
2019-05-26T03:08:24.166Z,12.4
2019-05-26T03:09:29.357Z,12.45
2019-05-26T03:10:26.053Z,12.45
2019-05-26T03:11:27.045Z,12.45
2019-05-26T03:12:26.760Z,12.43
2019-05-26T03:13:26.903Z,12.36
2019-05-26T03:14:27.615Z,12.43
2019-05-26T03:15:27.608Z,12.44
2019-05-26T03:16:28.620Z,12.45
2019-05-26T03:17:29.314Z,12.39
2019-05-26T03:18:30.021Z,12.48
2019-05-26T03:19:30.036Z,12.45
2019-05-26T03:20:30.776Z,12.43
2019-05-26T03:21:30.900Z,12.45
2019-05-26T03:22:31.631Z,12.44
2019-05-26T03:23:32.040Z,12.37
2019-05-26T03:24:32.450Z,12.43
2019-05-26T03:25:33.005Z,12.36
2019-05-26T03:26:34.016Z,12.45
2019-05-26T03:27:34.751Z,12.47
2019-05-26T03:28:35.181Z,12.37
2019-05-26T03:29:35.869Z,12.44
2019-05-26T03:30:36.331Z,12.39
2019-05-26T03:31:37.438Z,12.4
2019-05-26T03:32:38.545Z,12.43
2019-05-26T03:33:38.629Z,12.36
2019-05-26T03:34:39.418Z,12.37
2019-05-26T03:35:39.968Z,12.44
2019-05-26T03:36:39.799Z,12.44
2019-05-26T03:37:40.211Z,12.35
2019-05-26T03:38:40.780Z,12.35
2019-05-26T03:39:49.817Z,12.37
2019-05-26T03:40:40.962Z,12.45
2019-05-26T03:41:41.957Z,12.36
2019-05-26T03:42:43.252Z,12.36
2019-05-26T03:43:44.239Z,12.44
2019-05-26T03:44:44.659Z,12.36
2019-05-26T03:45:44.924Z,12.39
2019-05-26T03:46:45.655Z,12.33
2019-05-26T03:47:46.661Z,12.37
2019-05-26T03:48:47.367Z,12.5
2019-05-26T03:49:47.667Z,12.48
2019-05-26T03:50:48.458Z,12.39
2019-05-26T03:51:49.168Z,12.37
2019-05-26T03:52:49.231Z,12.39
2019-05-26T03:53:50.238Z,12.39
2019-05-26T03:54:51.233Z,12.37
2019-05-26T03:55:51.231Z,12.29
2019-05-26T03:56:52.250Z,12.37
2019-05-26T03:57:52.985Z,12.3
2019-05-26T03:58:54.269Z,12.37
2019-05-26T03:59:54.290Z,12.39
2019-05-26T04:00:55.092Z,12.3
2019-05-26T04:01:58.119Z,12.35
2019-05-26T04:02:56.784Z,12.36
2019-05-26T04:03:56.918Z,12.29
2019-05-26T04:04:57.627Z,12.33
2019-05-26T04:05:57.927Z,12.4
2019-05-26T04:06:59.304Z,12.37
2019-05-26T04:08:05.509Z,12.35
2019-05-26T04:08:59.923Z,12.36
2019-05-26T04:10:10.340Z,12.44
2019-05-26T04:11:00.765Z,12.37
2019-05-26T04:12:01.060Z,12.43
2019-05-26T04:13:02.364Z,12.39
2019-05-26T04:14:02.368Z,12.47
2019-05-26T04:15:02.530Z,12.5
2019-05-26T04:16:03.098Z,12.47
2019-05-26T04:17:03.227Z,12.55
2019-05-26T04:18:03.651Z,12.51
2019-05-26T04:19:04.637Z,12.53
2019-05-26T04:20:04.648Z,12.54
2019-05-26T04:21:05.512Z,12.53
2019-05-26T04:22:05.814Z,12.55
2019-05-26T04:23:06.817Z,12.54
2019-05-26T04:24:07.238Z,12.58
2019-05-26T04:25:07.754Z,12.54
2019-05-26T04:26:08.181Z,12.61
2019-05-26T04:27:08.306Z,12.54
2019-05-26T04:28:09.287Z,12.57
2019-05-26T04:29:10.270Z,12.54
2019-05-26T04:30:10.296Z,12.55
2019-05-26T04:31:11.300Z,12.57
2019-05-26T04:32:12.315Z,12.55
2019-05-26T04:33:13.032Z,12.58
2019-05-26T04:34:13.773Z,12.55
2019-05-26T04:35:14.218Z,12.57
2019-05-26T04:36:14.490Z,12.55
2019-05-26T04:37:15.484Z,12.55
2019-05-26T04:38:15.891Z,12.62
2019-05-26T04:39:16.020Z,12.57
2019-05-26T04:40:32.513Z,12.65
2019-05-26T04:41:17.518Z,12.66
2019-05-26T04:42:18.536Z,12.68
2019-05-26T04:43:20.878Z,12.7
2019-05-26T04:44:19.595Z,12.63
2019-05-26T04:45:20.314Z,12.66
2019-05-26T04:46:21.161Z,12.58
2019-05-26T04:47:21.749Z,12.63
2019-05-26T04:48:22.807Z,12.62
2019-05-26T04:49:22.811Z,12.63
2019-05-26T04:50:23.911Z,12.7
2019-05-26T04:51:24.948Z,12.78
2019-05-26T04:52:25.965Z,12.76
2019-05-26T04:53:26.699Z,12.76
2019-05-26T04:54:27.715Z,12.81
2019-05-26T04:55:28.284Z,12.8
2019-05-26T04:56:28.100Z,12.78
2019-05-26T04:57:28.810Z,12.8
2019-05-26T04:58:29.513Z,12.8
2019-05-26T04:59:29.921Z,12.83
2019-05-26T05:00:31.040Z,12.78
2019-05-26T05:01:31.730Z,12.84
2019-05-26T05:02:31.877Z,12.87
2019-05-26T05:03:32.590Z,12.81
2019-05-26T05:04:33.325Z,12.78
2019-05-26T05:05:34.048Z,12.78
2019-05-26T05:06:35.008Z,12.8
2019-05-26T05:07:36.006Z,12.83
2019-05-26T05:08:36.717Z,12.81
2019-05-26T05:09:37.445Z,12.81
2019-05-26T05:10:48.222Z,12.81
2019-05-26T05:11:38.633Z,12.88
2019-05-26T05:12:39.703Z,12.81
2019-05-26T05:13:40.127Z,12.78
2019-05-26T05:14:40.541Z,12.81
2019-05-26T05:15:41.323Z,12.83
2019-05-26T05:16:42.193Z,12.83
2019-05-26T05:17:42.609Z,12.8
2019-05-26T05:18:43.332Z,12.9
2019-05-26T05:19:43.747Z,12.86
2019-05-26T05:20:44.242Z,12.87
2019-05-26T05:21:44.371Z,12.9
2019-05-26T05:22:44.498Z,12.94
2019-05-26T05:23:44.904Z,13.02
2019-05-26T05:24:45.329Z,13.03
2019-05-26T05:25:45.748Z,13.03
2019-05-26T05:26:46.276Z,13.02
2019-05-26T05:27:46.681Z,13.01
2019-05-26T05:28:47.079Z,13.01
2019-05-26T05:29:47.796Z,13.01
2019-05-26T05:30:48.214Z,13.02
2019-05-26T05:31:48.923Z,13.09
2019-05-26T05:32:49.042Z,13.08
2019-05-26T05:33:49.176Z,13.12
2019-05-26T05:34:49.583Z,13.11
2019-05-26T05:35:50.581Z,13.12
2019-05-26T05:36:50.518Z,13.11
2019-05-26T05:37:51.216Z,13.13
2019-05-26T05:38:52.206Z,13.16
2019-05-26T05:39:52.608Z,13.17
2019-05-26T05:41:04.921Z,13.17
2019-05-26T05:41:53.632Z,13.2
2019-05-26T05:42:54.035Z,13.17
2019-05-26T05:43:54.156Z,13.11
2019-05-26T05:44:54.915Z,13.24
2019-05-26T05:45:55.042Z,13.24
2019-05-26T05:46:55.856Z,13.09
2019-05-26T05:47:56.266Z,13.21
2019-05-26T05:48:57.375Z,13.23
2019-05-26T05:49:57.498Z,13.21
2019-05-26T05:50:58.232Z,13.23
2019-05-26T05:51:58.941Z,13.21
2019-05-26T05:52:59.070Z,13.24
2019-05-26T05:54:00.110Z,13.37
2019-05-26T05:55:00.874Z,13.27
2019-05-26T05:56:02.209Z,13.3
2019-05-26T05:57:02.430Z,13.31
2019-05-26T05:58:03.147Z,13.27
2019-05-26T05:59:03.569Z,13.4
2019-05-26T06:00:03.728Z,13.26
2019-05-26T06:01:04.449Z,13.27
2019-05-26T06:02:05.153Z,13.24
2019-05-26T06:03:05.290Z,13.26
2019-05-26T06:04:05.827Z,13.28
2019-05-26T06:05:05.957Z,13.2
2019-05-26T06:06:06.399Z,13.2
2019-05-26T06:07:07.519Z,13.37
2019-05-26T06:08:07.703Z,13.4
2019-05-26T06:09:08.611Z,13.36
2019-05-26T06:10:09.333Z,13.36
2019-05-26T06:11:21.796Z,13.4
2019-05-26T06:12:10.511Z,13.39
2019-05-26T06:13:11.194Z,13.37
2019-05-26T06:14:11.329Z,13.4
2019-05-26T06:15:15.512Z,13.42
2019-05-26T06:16:12.547Z,13.37
2019-05-26T06:17:16.512Z,13.46
2019-05-26T06:18:13.916Z,13.4
2019-05-26T06:19:14.035Z,13.4
2019-05-26T06:20:14.437Z,13.39
2019-05-26T06:21:14.646Z,13.43
2019-05-26T06:22:14.775Z,13.46
2019-05-26T06:23:15.183Z,13.52
2019-05-26T06:24:15.607Z,13.46
2019-05-26T06:25:16.067Z,13.5
2019-05-26T06:26:17.076Z,13.55
2019-05-26T06:27:17.588Z,13.52
2019-05-26T06:28:17.714Z,13.58
2019-05-26T06:29:18.120Z,13.54
2019-05-26T06:30:18.263Z,13.6
2019-05-26T06:31:19.023Z,13.61
2019-05-26T06:32:20.784Z,13.65
2019-05-26T06:33:20.201Z,13.62
2019-05-26T06:34:20.621Z,13.65
2019-05-26T06:35:21.141Z,13.65
2019-05-26T06:36:21.669Z,13.6
2019-05-26T06:37:22.902Z,13.64
2019-05-26T06:38:23.025Z,13.64
2019-05-26T06:39:23.721Z,13.73
2019-05-26T06:40:23.847Z,13.71
2019-05-26T06:41:38.753Z,13.68
2019-05-26T06:42:24.878Z,13.76
2019-05-26T06:43:25.927Z,13.75
2019-05-26T06:44:26.055Z,13.76
2019-05-26T06:45:27.387Z,13.82
2019-05-26T06:46:28.096Z,13.79
2019-05-26T06:47:28.135Z,13.78
2019-05-26T06:48:32.335Z,13.82
2019-05-26T06:49:29.462Z,13.85
2019-05-26T06:50:30.455Z,13.87
2019-05-26T06:51:31.159Z,13.91
2019-05-26T06:52:31.582Z,13.91
2019-05-26T06:53:32.014Z,13.98
2019-05-26T06:54:32.577Z,13.86
2019-05-26T06:55:33.009Z,13.91
2019-05-26T06:56:33.987Z,13.98
2019-05-26T06:57:33.553Z,13.89
2019-05-26T06:58:34.272Z,13.98
2019-05-26T06:59:34.695Z,13.97
2019-05-26T07:00:35.114Z,14.04
2019-05-26T07:01:35.551Z,14.03
2019-05-26T07:02:35.974Z,14.07
2019-05-26T07:03:36.120Z,13.95
2019-05-26T07:04:36.844Z,13.97
2019-05-26T07:05:36.982Z,13.94
2019-05-26T07:06:37.707Z,14.03
2019-05-26T07:07:38.237Z,14.04
2019-05-26T07:08:38.935Z,14.07
2019-05-26T07:09:39.059Z,14.04
2019-05-26T07:10:39.760Z,14.03
2019-05-26T07:12:00.807Z,14.01
2019-05-26T07:12:40.586Z,14.04
2019-05-26T07:13:41.012Z,14.12
2019-05-26T07:14:42.008Z,14.04
2019-05-26T07:15:42.801Z,14
2019-05-26T07:16:44.652Z,14
2019-05-26T07:17:43.326Z,14.11
2019-05-26T07:18:43.465Z,14.08
2019-05-26T07:19:43.884Z,14.15
2019-05-26T07:20:44.585Z,14.22
2019-05-26T07:21:45.327Z,14.22
2019-05-26T07:22:45.461Z,14.3
2019-05-26T07:23:45.581Z,14.25
2019-05-26T07:24:45.737Z,14.31
2019-05-26T07:25:45.994Z,14.33
2019-05-26T07:26:46.423Z,14.43
2019-05-26T07:27:47.011Z,14.43
2019-05-26T07:28:47.726Z,14.23
2019-05-26T07:29:48.209Z,14.36
2019-05-26T07:30:48.914Z,14.33
2019-05-26T07:31:49.632Z,14.34
2019-05-26T07:32:50.365Z,14.31
2019-05-26T07:33:50.506Z,14.33
2019-05-26T07:34:50.905Z,14.4
2019-05-26T07:35:51.028Z,14.36
2019-05-26T07:36:51.725Z,14.43
2019-05-26T07:37:51.685Z,14.4
2019-05-26T07:38:52.116Z,14.45
2019-05-26T07:39:52.543Z,14.53
2019-05-26T07:40:53.270Z,14.53
2019-05-26T07:42:11.204Z,14.52
2019-05-26T07:42:54.452Z,14.62
2019-05-26T07:43:54.865Z,14.66
2019-05-26T07:44:55.863Z,14.63
2019-05-26T07:45:56.584Z,14.62
2019-05-26T07:46:57.281Z,14.71
2019-05-26T07:47:57.821Z,14.7
2019-05-26T07:48:58.101Z,14.7
2019-05-26T07:49:58.257Z,14.79
2019-05-26T07:50:58.691Z,14.78
2019-05-26T07:51:59.124Z,14.79
2019-05-26T07:53:00.132Z,14.89
2019-05-26T07:54:01.773Z,14.93
2019-05-26T07:55:01.349Z,14.93
2019-05-26T07:56:01.756Z,14.96
2019-05-26T07:57:01.888Z,14.87
2019-05-26T07:58:02.855Z,14.94
2019-05-26T07:59:03.281Z,15.08
2019-05-26T08:00:03.699Z,15.07
2019-05-26T08:01:03.744Z,15.08
2019-05-26T08:02:04.145Z,15.1
2019-05-26T08:03:05.183Z,15.02
2019-05-26T08:04:05.902Z,15.18
2019-05-26T08:05:06.590Z,14.97
2019-05-26T08:06:06.715Z,15.07
2019-05-26T08:07:07.488Z,15.1
2019-05-26T08:08:18.128Z,15.07
2019-05-26T08:09:08.848Z,15.05
2019-05-26T08:10:09.614Z,15.15
2019-05-26T08:11:10.334Z,15.15
2019-05-26T08:12:30.308Z,15.25
2019-05-26T08:13:11.258Z,15.3
2019-05-26T08:14:11.940Z,15.26
2019-05-26T08:15:12.073Z,15.27
2019-05-26T08:16:12.280Z,15.33
2019-05-26T08:17:12.711Z,15.32
2019-05-26T08:18:12.675Z,15.32
2019-05-26T08:19:12.804Z,15.47
2019-05-26T08:20:13.843Z,15.44
2019-05-26T08:21:14.261Z,15.52
2019-05-26T08:22:14.688Z,15.63
2019-05-26T08:23:14.815Z,15.6
2019-05-26T08:24:14.944Z,15.66
2019-05-26T08:25:15.385Z,15.67
2019-05-26T08:26:15.788Z,15.69
2019-05-26T08:27:16.498Z,15.72
2019-05-26T08:28:16.805Z,15.73
2019-05-26T08:29:16.943Z,15.78
2019-05-26T08:30:17.934Z,15.75
2019-05-26T08:31:19.245Z,15.7
2019-05-26T08:32:20.627Z,15.76
2019-05-26T08:33:20.028Z,15.69
2019-05-26T08:34:20.454Z,15.73
2019-05-26T08:35:21.181Z,15.78
2019-05-26T08:36:21.947Z,15.75
2019-05-26T08:37:22.645Z,15.73
2019-05-26T08:38:23.666Z,15.87
2019-05-26T08:39:24.410Z,15.88
2019-05-26T08:40:24.858Z,15.92
2019-05-26T08:41:25.278Z,15.92
2019-05-26T08:42:44.980Z,15.99
2019-05-26T08:43:26.710Z,16.05
2019-05-26T08:44:27.135Z,16.13
2019-05-26T08:45:28.611Z,16.12
2019-05-26T08:46:27.744Z,16.24
2019-05-26T08:47:27.872Z,16.26
2019-05-26T08:48:28.391Z,16.39
2019-05-26T08:49:28.387Z,16.37
2019-05-26T08:50:29.390Z,16.47
2019-05-26T08:51:29.586Z,16.54
2019-05-26T08:52:30.100Z,16.65
2019-05-26T08:53:30.543Z,16.72
2019-05-26T08:54:30.670Z,16.97
2019-05-26T08:55:30.810Z,17.63
2019-05-26T08:56:31.530Z,18.41
2019-05-26T08:57:31.954Z,19
2019-05-26T08:58:34.835Z,19.62
2019-05-26T08:59:32.826Z,20.21
2019-05-26T09:00:33.240Z,20.66
2019-05-26T09:01:33.666Z,20.92
2019-05-26T09:02:33.798Z,21.15
2019-05-26T09:03:33.931Z,21.6
2019-05-26T09:04:34.637Z,22.07
2019-05-26T09:05:35.126Z,22.41
2019-05-26T09:06:35.552Z,22.81
2019-05-26T09:07:35.990Z,22.93
2019-05-26T09:08:35.956Z,22.81
2019-05-26T09:09:36.461Z,22.34
2019-05-26T09:10:37.196Z,22.28
2019-05-26T09:11:37.980Z,22.22
2019-05-26T09:12:38.414Z,22.52
2019-05-26T09:13:38.834Z,22.56
2019-05-26T09:14:39.563Z,22.74
2019-05-26T09:15:40.277Z,23.1
2019-05-26T09:16:41.579Z,23.58
2019-05-26T09:17:42.010Z,23.73
2019-05-26T09:18:42.626Z,23.92
2019-05-26T09:19:42.758Z,23.81
2019-05-26T09:20:42.897Z,24.01
2019-05-26T09:21:43.598Z,24.21
2019-05-26T09:22:44.030Z,23.79
2019-05-26T09:23:44.160Z,23.37
2019-05-26T09:24:44.889Z,23.04
2019-05-26T09:25:46.979Z,22.74
2019-05-26T09:26:45.694Z,22.36
2019-05-26T09:27:45.833Z,22
2019-05-26T09:28:47.092Z,21.66
2019-05-26T09:29:47.503Z,21.51
2019-05-26T09:30:47.912Z,21.19
2019-05-26T09:31:48.599Z,21.04
2019-05-26T09:32:49.341Z,20.74
2019-05-26T09:33:49.762Z,20.71
2019-05-26T09:34:50.777Z,20.34
2019-05-26T09:35:51.237Z,20.3
2019-05-26T09:36:51.366Z,20.17
2019-05-26T09:37:51.537Z,19.96
2019-05-26T09:38:52.296Z,19.64
2019-05-26T09:39:52.717Z,19.63
2019-05-26T09:40:53.169Z,19.6
2019-05-26T09:41:53.895Z,19.6
2019-05-26T09:42:54.609Z,19.66
2019-05-26T09:43:55.197Z,19.64
2019-05-26T09:44:55.335Z,19.74
2019-05-26T09:45:55.784Z,19.79
2019-05-26T09:46:56.496Z,19.77
2019-05-26T09:47:57.183Z,19.82
2019-05-26T09:49:01.522Z,20.07
2019-05-26T09:49:58.651Z,20.11
2019-05-26T09:50:59.075Z,19.94
2019-05-26T09:51:59.501Z,19.77
2019-05-26T09:52:59.927Z,19.71
2019-05-26T09:54:07.735Z,19.72
2019-05-26T09:55:00.813Z,19.66
2019-05-26T09:56:00.947Z,19.67
2019-05-26T09:57:01.089Z,19.55
2019-05-26T09:58:01.527Z,19.59
2019-05-26T09:59:02.418Z,19.52
2019-05-26T10:00:02.134Z,19.55
2019-05-26T10:01:03.276Z,19.49
2019-05-26T10:02:04.022Z,19.49
2019-05-26T10:03:04.457Z,19.48
2019-05-26T10:04:05.181Z,19.44
2019-05-26T10:05:05.898Z,19.42
2019-05-26T10:06:06.604Z,19.35
2019-05-26T10:07:10.144Z,19.29
2019-05-26T10:08:07.332Z,19.24
2019-05-26T10:09:08.882Z,19.22
2019-05-26T10:10:08.895Z,19.29
2019-05-26T10:11:09.896Z,19.35
2019-05-26T10:12:10.896Z,19.34
2019-05-26T10:13:11.328Z,19.12
2019-05-26T10:14:11.599Z,18.94
2019-05-26T10:15:12.327Z,18.83
2019-05-26T10:16:13.055Z,18.74
2019-05-26T10:17:13.520Z,18.6
2019-05-26T10:18:14.271Z,18.61
2019-05-26T10:19:14.950Z,18.6
2019-05-26T10:20:15.363Z,18.67
2019-05-26T10:21:15.785Z,18.78
2019-05-26T10:22:15.927Z,18.76
2019-05-26T10:23:16.695Z,18.67
2019-05-26T10:24:16.823Z,18.76
2019-05-26T10:25:18.105Z,18.74
2019-05-26T10:26:18.592Z,18.74
2019-05-26T10:27:19.295Z,18.89
2019-05-26T10:28:20.017Z,18.94
2019-05-26T10:29:20.655Z,19.04
2019-05-26T10:30:20.785Z,19.11
2019-05-26T10:31:21.771Z,19.22
2019-05-26T10:32:22.509Z,19.23
2019-05-26T10:33:23.230Z,19.05
2019-05-26T10:34:23.358Z,18.92
2019-05-26T10:35:24.099Z,18.98
2019-05-26T10:36:24.525Z,19
2019-05-26T10:37:24.955Z,18.98
2019-05-26T10:38:25.090Z,18.96
2019-05-26T10:39:25.340Z,18.91
2019-05-26T10:40:25.523Z,18.98
2019-05-26T10:41:25.651Z,19.05
2019-05-26T10:42:26.658Z,19.19
2019-05-26T10:43:26.789Z,19.3
2019-05-26T10:44:27.465Z,19.3
2019-05-26T10:45:28.175Z,19.45
2019-05-26T10:46:28.450Z,19.49
2019-05-26T10:47:28.861Z,19.52
2019-05-26T10:48:29.581Z,19.53
2019-05-26T10:49:30.267Z,19.48
2019-05-26T10:50:30.406Z,19.59
2019-05-26T10:51:31.141Z,19.59
2019-05-26T10:52:31.566Z,19.57
2019-05-26T10:53:31.973Z,19.56
2019-05-26T10:54:32.104Z,19.56
2019-05-26T10:55:33.093Z,19.55
2019-05-26T10:56:33.233Z,19.45
2019-05-26T10:57:33.360Z,19.44
2019-05-26T10:58:33.514Z,19.44
2019-05-26T10:59:37.224Z,19.42
2019-05-26T11:00:38.666Z,19.47
2019-05-26T11:01:35.395Z,19.48
2019-05-26T11:02:36.109Z,19.6
2019-05-26T11:03:36.882Z,19.71
2019-05-26T11:04:37.312Z,19.74
2019-05-26T11:05:38.020Z,19.72
2019-05-26T11:06:38.428Z,19.94
2019-05-26T11:07:38.567Z,19.94
2019-05-26T11:08:38.691Z,19.97
2019-05-26T11:09:39.512Z,19.99
2019-05-26T11:10:39.641Z,19.99
2019-05-26T11:11:40.063Z,19.96
2019-05-26T11:12:40.502Z,19.94
2019-05-26T11:13:41.246Z,20.03
2019-05-26T11:14:40.959Z,19.97
2019-05-26T11:15:41.655Z,19.94
2019-05-26T11:16:42.072Z,19.97
2019-05-26T11:17:42.480Z,19.9
2019-05-26T11:18:42.915Z,19.85
2019-05-26T11:19:43.609Z,19.84
2019-05-26T11:20:43.751Z,19.74
2019-05-26T11:21:44.508Z,19.81
2019-05-26T11:22:44.925Z,19.64
2019-05-26T11:23:45.940Z,19.67
2019-05-26T11:24:46.639Z,19.64
2019-05-26T11:25:46.784Z,19.64
2019-05-26T11:26:47.206Z,19.67
2019-05-26T11:27:48.292Z,19.66
2019-05-26T11:28:49.006Z,19.59
2019-05-26T11:29:49.683Z,19.52
2019-05-26T11:30:49.828Z,19.53
2019-05-26T11:31:50.251Z,19.45
2019-05-26T11:32:50.663Z,19.44
2019-05-26T11:33:51.655Z,19.48
2019-05-26T11:35:06.018Z,19.47
2019-05-26T11:35:51.724Z,19.45
2019-05-26T11:36:52.464Z,19.44
2019-05-26T11:37:53.450Z,19.56
2019-05-26T11:38:54.446Z,19.49
2019-05-26T11:39:55.276Z,19.56
2019-05-26T11:40:56.927Z,19.59
2019-05-26T11:42:14.203Z,19.67
2019-05-26T11:42:56.318Z,19.63
2019-05-26T11:43:56.542Z,19.67
2019-05-26T11:44:57.805Z,19.66
2019-05-26T11:45:58.291Z,19.78
2019-05-26T11:46:59.073Z,19.87
2019-05-26T11:47:59.205Z,19.82
2019-05-26T11:48:59.650Z,19.81
2019-05-26T11:50:00.897Z,19.84
2019-05-26T11:51:01.874Z,19.97
2019-05-26T11:52:02.720Z,20.03
2019-05-26T11:53:03.832Z,20.15
2019-05-26T11:54:03.967Z,20.24
2019-05-26T11:55:04.665Z,20.29
2019-05-26T11:56:05.107Z,20.26
2019-05-26T11:57:05.882Z,20.37
2019-05-26T11:58:06.025Z,20.34
2019-05-26T11:59:06.789Z,20.36
2019-05-26T12:00:10.980Z,20.44
2019-05-26T12:01:08.010Z,20.55
2019-05-26T12:02:09.203Z,20.58
2019-05-26T12:03:09.343Z,20.55
2019-05-26T12:04:10.056Z,20.48
2019-05-26T12:05:10.504Z,20.52
2019-05-26T12:06:11.171Z,20.59
2019-05-26T12:07:11.888Z,20.5
2019-05-26T12:08:12.624Z,20.52
2019-05-26T12:09:12.763Z,20.52
2019-05-26T12:10:14.946Z,20.58
2019-05-26T12:11:14.090Z,20.58
2019-05-26T12:12:14.519Z,20.53
2019-05-26T12:13:14.996Z,20.6
2019-05-26T12:14:15.707Z,20.53
2019-05-26T12:15:16.623Z,20.53
2019-05-26T12:16:17.351Z,20.52
2019-05-26T12:17:17.781Z,20.34
2019-05-26T12:18:18.789Z,20.44
2019-05-26T12:19:19.867Z,20.37
2019-05-26T12:20:20.256Z,20.32
2019-05-26T12:21:20.976Z,20.26
2019-05-26T12:22:21.450Z,20.24
2019-05-26T12:23:21.584Z,20.27
2019-05-26T12:24:22.604Z,20.26
2019-05-26T12:25:23.024Z,20.24
2019-05-26T12:26:23.477Z,20.26
2019-05-26T12:27:23.912Z,20.3
2019-05-26T12:28:24.912Z,20.3
2019-05-26T12:29:25.047Z,20.26
2019-05-26T12:30:26.594Z,20.3
2019-05-26T12:31:26.726Z,20.26
2019-05-26T12:32:27.422Z,20.18
2019-05-26T12:33:27.849Z,20.21
2019-05-26T12:34:28.571Z,20.19
2019-05-26T12:35:28.982Z,20.22
2019-05-26T12:36:29.441Z,20.18
2019-05-26T12:37:29.568Z,20.21
2019-05-26T12:38:30.289Z,20.19
2019-05-26T12:39:30.420Z,20.26
2019-05-26T12:40:31.394Z,20.12
2019-05-26T12:41:37.435Z,20.14
2019-05-26T12:42:31.948Z,20.21
2019-05-26T12:43:32.085Z,20.11
2019-05-26T12:44:32.794Z,20.12
2019-05-26T12:45:33.523Z,20.14
2019-05-26T12:46:33.959Z,20.14
2019-05-26T12:47:34.090Z,20.04
2019-05-26T12:48:34.238Z,20.19
2019-05-26T12:49:34.671Z,20.18
2019-05-26T12:50:35.244Z,20.21
2019-05-26T12:51:36.227Z,20.3
2019-05-26T12:52:36.359Z,20.29
2019-05-26T12:53:36.787Z,20.46
2019-05-26T12:54:37.493Z,20.42
2019-05-26T12:55:37.903Z,20.49
2019-05-26T12:56:38.324Z,20.4
2019-05-26T12:57:39.400Z,20.46
2019-05-26T12:58:39.821Z,20.39
2019-05-26T12:59:40.524Z,20.4
2019-05-26T13:00:55.638Z,20.37
2019-05-26T13:01:41.377Z,20.44
2019-05-26T13:02:42.131Z,20.37